Terminal Aerodrome Forecast
Issued by NWS Spokane, WA

Home | Current Version | Previous Version | Text Only | Print | Product List | Glossary On
Versions: 1 2 3 4 5 6 7 8 9 10 11 12 13 14 15 16 17 18 19 20 21 22 23 24 25 26 27 28 29
000
FTUS46 KOTX 241124
TAFEAT
TAF
KEAT 241124Z 2412/2512 16003KT P6SM SCT060 BKN100
     FM241700 31014KT P6SM SCT040 BKN100
     FM242000 30018G28KT P6SM FEW035 SCT100
     FM250300 29014KT P6SM FEW150=

USA.gov is the U.S. government's official web portal to all federal, state and local government web resources and services.